sensor_id;sensor_type;location;lat;lon;timestamp;pressure;altitude;pressure_sealevel;temperature;humidity
54628;BME280;40525;55.926;21.066;2022-09-09T00:02:18;102046.63;;;11.42;51.11
54628;BME280;40525;55.926;21.066;2022-09-09T00:04:42;102046.66;;;11.41;51.16
54628;BME280;40525;55.926;21.066;2022-09-09T00:12:44;102041.17;;;11.32;51.42
54628;BME280;40525;55.926;21.066;2022-09-09T00:15:22;102039.95;;;11.29;51.59
54628;BME280;40525;55.926;21.066;2022-09-09T00:18:10;102041.88;;;11.22;51.52
54628;BME280;40525;55.926;21.066;2022-09-09T00:20:49;102033.63;;;11.18;51.57
54628;BME280;40525;55.926;21.066;2022-09-09T00:23:27;102032.81;;;11.16;51.61
54628;BME280;40525;55.926;21.066;2022-09-09T00:28:31;102026.70;;;11.14;51.69
54628;BME280;40525;55.926;21.066;2022-09-09T00:31:23;102023.28;;;11.10;51.75
54628;BME280;40525;55.926;21.066;2022-09-09T00:33:50;102024.17;;;11.09;51.80
54628;BME280;40525;55.926;21.066;2022-09-09T00:36:22;102027.34;;;11.06;51.85
54628;BME280;40525;55.926;21.066;2022-09-09T00:39:01;102021.70;;;11.03;51.91
54628;BME280;40525;55.926;21.066;2022-09-09T00:44:27;102015.28;;;10.97;52.15
54628;BME280;40525;55.926;21.066;2022-09-09T00:57:52;102030.81;;;10.91;52.31
54628;BME280;40525;55.926;21.066;2022-09-09T01:00:27;102030.48;;;10.87;52.36
54628;BME280;40525;55.926;21.066;2022-09-09T01:03:10;102026.20;;;10.83;52.65
54628;BME280;40525;55.926;21.066;2022-09-09T01:26:15;102020.52;;;10.64;52.86
54628;BME280;40525;55.926;21.066;2022-09-09T01:28:52;102021.05;;;10.61;52.90
54628;BME280;40525;55.926;21.066;2022-09-09T01:31:23;102025.89;;;10.60;52.97
54628;BME280;40525;55.926;21.066;2022-09-09T01:33:55;102025.95;;;10.57;53.08
54628;BME280;40525;55.926;21.066;2022-09-09T01:39:27;102022.12;;;10.52;53.17
54628;BME280;40525;55.926;21.066;2022-09-09T01:41:58;102030.09;;;10.49;53.27
54628;BME280;40525;55.926;21.066;2022-09-09T01:44:27;102028.84;;;10.47;53.35
54628;BME280;40525;55.926;21.066;2022-09-09T01:46:54;102026.23;;;10.46;53.49
54628;BME280;40525;55.926;21.066;2022-09-09T01:49:21;102033.81;;;10.42;53.80
54628;BME280;40525;55.926;21.066;2022-09-09T01:51:51;102035.16;;;10.40;53.77
54628;BME280;40525;55.926;21.066;2022-09-09T01:54:23;102031.70;;;10.38;53.73
54628;BME280;40525;55.926;21.066;2022-09-09T02:00:05;102022.96;;;10.36;53.84
54628;BME280;40525;55.926;21.066;2022-09-09T02:05:40;102026.09;;;10.34;53.90
54628;BME280;40525;55.926;21.066;2022-09-09T02:08:29;102019.09;;;10.31;53.95
54628;BME280;40525;55.926;21.066;2022-09-09T02:13:48;102016.06;;;10.29;54.04
54628;BME280;40525;55.926;21.066;2022-09-09T02:19:00;102017.38;;;10.29;54.02
54628;BME280;40525;55.926;21.066;2022-09-09T02:21:35;102018.27;;;10.28;54.12
54628;BME280;40525;55.926;21.066;2022-09-09T02:24:05;102016.12;;;10.26;54.20
54628;BME280;40525;55.926;21.066;2022-09-09T02:26:40;102008.70;;;10.24;54.21
54628;BME280;40525;55.926;21.066;2022-09-09T02:29:23;102012.25;;;10.23;54.25
54628;BME280;40525;55.926;21.066;2022-09-09T02:31:47;102015.31;;;10.22;54.29
54628;BME280;40525;55.926;21.066;2022-09-09T02:34:20;102018.45;;;10.20;54.34
54628;BME280;40525;55.926;21.066;2022-09-09T02:36:49;102014.06;;;10.21;54.37
54628;BME280;40525;55.926;21.066;2022-09-09T02:39:17;102008.36;;;10.20;54.45
54628;BME280;40525;55.926;21.066;2022-09-09T02:41:45;102009.70;;;10.18;54.48
54628;BME280;40525;55.926;21.066;2022-09-09T02:44:16;102003.14;;;10.16;54.56
54628;BME280;40525;55.926;21.066;2022-09-09T02:55:46;102006.42;;;10.08;54.75
54628;BME280;40525;55.926;21.066;2022-09-09T02:58:12;102003.41;;;10.06;54.78
54628;BME280;40525;55.926;21.066;2022-09-09T03:00:46;101998.20;;;10.03;54.81
54628;BME280;40525;55.926;21.066;2022-09-09T03:03:13;101994.70;;;10.02;54.87
54628;BME280;40525;55.926;21.066;2022-09-09T03:05:43;101989.92;;;10.00;55.03
54628;BME280;40525;55.926;21.066;2022-09-09T03:08:11;101997.03;;;9.96;55.11
54628;BME280;40525;55.926;21.066;2022-09-09T03:10:39;101996.63;;;9.94;55.12
54628;BME280;40525;55.926;21.066;2022-09-09T03:13:06;101997.55;;;9.93;55.20
54628;BME280;40525;55.926;21.066;2022-09-09T03:15:35;101995.80;;;9.92;55.28
54628;BME280;40525;55.926;21.066;2022-09-09T03:18:03;101991.02;;;9.90;55.32
54628;BME280;40525;55.926;21.066;2022-09-09T03:20:31;101988.87;;;9.88;55.50
54628;BME280;40525;55.926;21.066;2022-09-09T03:23:00;101987.09;;;9.88;55.46
54628;BME280;40525;55.926;21.066;2022-09-09T03:25:27;101988.87;;;9.88;55.50
54628;BME280;40525;55.926;21.066;2022-09-09T03:27:55;101981.48;;;9.84;55.57
54628;BME280;40525;55.926;21.066;2022-09-09T03:30:24;101987.23;;;9.82;55.63
54628;BME280;40525;55.926;21.066;2022-09-09T03:32:54;101988.12;;;9.83;55.71
54628;BME280;40525;55.926;21.066;2022-09-09T03:35:22;101982.42;;;9.82;55.79
54628;BME280;40525;55.926;21.066;2022-09-09T03:37:48;101979.36;;;9.81;55.71
54628;BME280;40525;55.926;21.066;2022-09-09T03:40:15;101984.77;;;9.74;55.87
54628;BME280;40525;55.926;21.066;2022-09-09T03:42:44;101982.56;;;9.75;55.88
54628;BME280;40525;55.926;21.066;2022-09-09T03:45:11;101979.02;;;9.76;55.94
54628;BME280;40525;55.926;21.066;2022-09-09T03:47:40;101984.31;;;9.75;56.01
54628;BME280;40525;55.926;21.066;2022-09-09T03:50:07;101986.95;;;9.75;55.99
54628;BME280;40525;55.926;21.066;2022-09-09T03:52:39;101981.73;;;9.73;56.06
54628;BME280;40525;55.926;21.066;2022-09-09T03:55:08;101983.48;;;9.73;56.01
54628;BME280;40525;55.926;21.066;2022-09-09T03:57:36;101986.20;;;9.70;56.09
54628;BME280;40525;55.926;21.066;2022-09-09T04:00:05;101990.55;;;9.71;56.21
54628;BME280;40525;55.926;21.066;2022-09-09T04:02:35;101987.08;;;9.69;56.25
54628;BME280;40525;55.926;21.066;2022-09-09T04:05:02;101984.91;;;9.68;56.30
54628;BME280;40525;55.926;21.066;2022-09-09T04:07:29;101987.57;;;9.67;56.24
54628;BME280;40525;55.926;21.066;2022-09-09T04:09:58;101984.11;;;9.65;56.41
54628;BME280;40525;55.926;21.066;2022-09-09T04:12:24;101984.97;;;9.65;56.44
54628;BME280;40525;55.926;21.066;2022-09-09T04:14:52;101986.28;;;9.65;56.45
54628;BME280;40525;55.926;21.066;2022-09-09T04:17:20;101977.49;;;9.66;56.44
54628;BME280;40525;55.926;21.066;2022-09-09T04:19:48;101979.21;;;9.67;56.51
54628;BME280;40525;55.926;21.066;2022-09-09T04:22:15;101981.82;;;9.69;56.46
54628;BME280;40525;55.926;21.066;2022-09-09T04:24:42;101983.56;;;9.70;56.68
54628;BME280;40525;55.926;21.066;2022-09-09T04:27:08;101974.32;;;9.71;56.61
54628;BME280;40525;55.926;21.066;2022-09-09T04:29:35;101974.72;;;9.72;56.60
54628;BME280;40525;55.926;21.066;2022-09-09T04:32:02;101978.62;;;9.75;56.65
54628;BME280;40525;55.926;21.066;2022-09-09T04:34:29;101979.91;;;9.77;56.61
54628;BME280;40525;55.926;21.066;2022-09-09T04:36:56;101977.16;;;9.82;56.65
54628;BME280;40525;55.926;21.066;2022-09-09T04:39:24;101980.62;;;9.84;56.58
54628;BME280;40525;55.926;21.066;2022-09-09T04:41:50;101987.58;;;9.86;56.50
54628;BME280;40525;55.926;21.066;2022-09-09T04:44:17;101980.50;;;9.88;56.64
54628;BME280;40525;55.926;21.066;2022-09-09T04:46:44;101978.27;;;9.91;56.63
54628;BME280;40525;55.926;21.066;2022-09-09T04:49:11;101980.81;;;9.94;56.62
54628;BME280;40525;55.926;21.066;2022-09-09T04:51:38;101979.45;;;9.97;56.58
54628;BME280;40525;55.926;21.066;2022-09-09T04:54:04;101986.00;;;9.99;56.57
54628;BME280;40525;55.926;21.066;2022-09-09T04:56:31;101983.70;;;10.03;56.57
54628;BME280;40525;55.926;21.066;2022-09-09T04:58:59;101988.89;;;10.07;56.46
54628;BME280;40525;55.926;21.066;2022-09-09T05:01:30;101978.25;;;10.10;56.42
54628;BME280;40525;55.926;21.066;2022-09-09T05:03:59;101980.83;;;10.13;56.43
54628;BME280;40525;55.926;21.066;2022-09-09T05:06:26;101979.00;;;10.17;56.37
54628;BME280;40525;55.926;21.066;2022-09-09T05:08:54;101973.20;;;10.21;56.50
54628;BME280;40525;55.926;21.066;2022-09-09T05:11:28;101974.86;;;10.25;56.46
54628;BME280;40525;55.926;21.066;2022-09-09T05:14:01;101975.22;;;10.27;56.50
54628;BME280;40525;55.926;21.066;2022-09-09T05:16:29;101971.23;;;10.29;56.45
54628;BME280;40525;55.926;21.066;2022-09-09T05:18:57;101973.26;;;10.37;56.33
54628;BME280;40525;55.926;21.066;2022-09-09T05:21:26;101974.02;;;10.42;56.26
54628;BME280;40525;55.926;21.066;2022-09-09T05:23:54;101963.80;;;10.46;56.25
54628;BME280;40525;55.926;21.066;2022-09-09T05:26:22;101971.52;;;10.54;56.16
54628;BME280;40525;55.926;21.066;2022-09-09T05:28:51;101971.42;;;10.59;56.05
54628;BME280;40525;55.926;21.066;2022-09-09T05:31:18;101961.56;;;10.65;55.96
54628;BME280;40525;55.926;21.066;2022-09-09T05:33:47;101972.05;;;10.68;55.95
54628;BME280;40525;55.926;21.066;2022-09-09T05:36:17;101961.36;;;10.73;55.97
54628;BME280;40525;55.926;21.066;2022-09-09T05:38:47;101967.79;;;10.79;55.89
54628;BME280;40525;55.926;21.066;2022-09-09T05:41:15;101965.91;;;10.84;55.80
54628;BME280;40525;55.926;21.066;2022-09-09T05:43:44;101960.42;;;10.92;55.78
54628;BME280;40525;55.926;21.066;2022-09-09T05:46:14;101962.95;;;10.97;55.67
54628;BME280;40525;55.926;21.066;2022-09-09T05:48:46;101960.63;;;11.01;55.63
54628;BME280;40525;55.926;21.066;2022-09-09T05:51:17;101962.67;;;11.06;55.50
54628;BME280;40525;55.926;21.066;2022-09-09T05:53:47;101952.00;;;11.10;55.50
54628;BME280;40525;55.926;21.066;2022-09-09T05:56:23;101943.91;;;11.17;55.40
54628;BME280;40525;55.926;21.066;2022-09-09T05:58:55;101939.72;;;11.24;55.31
54628;BME280;40525;55.926;21.066;2022-09-09T06:01:25;101952.73;;;11.30;55.22
54628;BME280;40525;55.926;21.066;2022-09-09T06:03:55;101956.55;;;11.37;55.11
54628;BME280;40525;55.926;21.066;2022-09-09T06:06:24;101957.64;;;11.44;54.98
54628;BME280;40525;55.926;21.066;2022-09-09T06:08:54;101959.20;;;11.51;54.84
54628;BME280;40525;55.926;21.066;2022-09-09T06:11:28;101954.66;;;11.55;54.80
54628;BME280;40525;55.926;21.066;2022-09-09T06:14:00;101950.11;;;11.60;54.71
54628;BME280;40525;55.926;21.066;2022-09-09T06:16:29;101951.24;;;11.66;54.62
54628;BME280;40525;55.926;21.066;2022-09-09T06:18:59;101958.04;;;11.75;54.46
54628;BME280;40525;55.926;21.066;2022-09-09T06:21:30;101959.94;;;11.85;54.36
54628;BME280;40525;55.926;21.066;2022-09-09T06:24:04;101960.20;;;11.92;54.24
54628;BME280;40525;55.926;21.066;2022-09-09T06:26:37;101959.48;;;12.00;54.09
54628;BME280;40525;55.926;21.066;2022-09-09T06:29:03;101964.53;;;12.08;53.99
54628;BME280;40525;55.926;21.066;2022-09-09T06:31:33;101961.64;;;12.16;53.84
54628;BME280;40525;55.926;21.066;2022-09-09T06:34:16;101958.66;;;12.26;53.69
54628;BME280;40525;55.926;21.066;2022-09-09T06:36:44;101957.55;;;12.34;53.57
54628;BME280;40525;55.926;21.066;2022-09-09T06:39:12;101961.65;;;12.42;53.47
54628;BME280;40525;55.926;21.066;2022-09-09T06:41:39;101960.02;;;12.52;53.35
54628;BME280;40525;55.926;21.066;2022-09-09T06:44:08;101968.59;;;12.60;53.13
54628;BME280;40525;55.926;21.066;2022-09-09T06:46:39;101955.13;;;12.66;53.00
54628;BME280;40525;55.926;21.066;2022-09-09T06:49:07;101965.50;;;12.72;52.84
54628;BME280;40525;55.926;21.066;2022-09-09T06:51:36;101962.25;;;12.77;52.73
54628;BME280;40525;55.926;21.066;2022-09-09T06:54:06;101966.56;;;12.80;52.58
54628;BME280;40525;55.926;21.066;2022-09-09T06:56:35;101967.22;;;12.86;52.61
54628;BME280;40525;55.926;21.066;2022-09-09T06:59:05;101967.91;;;12.92;52.46
54628;BME280;40525;55.926;21.066;2022-09-09T07:01:37;101954.76;;;13.02;52.36
54628;BME280;40525;55.926;21.066;2022-09-09T07:04:08;101954.44;;;13.11;52.20
54628;BME280;40525;55.926;21.066;2022-09-09T07:06:44;101950.94;;;13.22;52.06
54628;BME280;40525;55.926;21.066;2022-09-09T07:09:12;101947.84;;;13.35;51.75
54628;BME280;40525;55.926;21.066;2022-09-09T07:11:44;101948.30;;;13.46;51.58
54628;BME280;40525;55.926;21.066;2022-09-09T07:14:13;101946.58;;;13.57;51.39
54628;BME280;40525;55.926;21.066;2022-09-09T07:16:41;101947.08;;;13.66;51.24
54628;BME280;40525;55.926;21.066;2022-09-09T07:19:09;101951.89;;;13.79;51.13
54628;BME280;40525;55.926;21.066;2022-09-09T07:21:37;101951.06;;;13.89;50.95
54628;BME280;40525;55.926;21.066;2022-09-09T07:24:03;101952.38;;;14.00;50.61
54628;BME280;40525;55.926;21.066;2022-09-09T07:26:32;101948.48;;;14.09;50.36
54628;BME280;40525;55.926;21.066;2022-09-09T07:29:00;101953.94;;;14.16;50.06
54628;BME280;40525;55.926;21.066;2022-09-09T07:31:30;101959.73;;;14.26;50.07
54628;BME280;40525;55.926;21.066;2022-09-09T07:34:00;101955.79;;;14.36;49.89
54628;BME280;40525;55.926;21.066;2022-09-09T07:36:36;101952.87;;;14.42;49.43
54628;BME280;40525;55.926;21.066;2022-09-09T07:39:08;101964.23;;;14.46;49.40
54628;BME280;40525;55.926;21.066;2022-09-09T07:41:45;101966.20;;;14.51;49.14
54628;BME280;40525;55.926;21.066;2022-09-09T07:44:16;101968.18;;;14.58;49.07
54628;BME280;40525;55.926;21.066;2022-09-09T07:46:45;101965.14;;;14.67;49.10
54628;BME280;40525;55.926;21.066;2022-09-09T07:49:14;101969.52;;;14.78;48.86
54628;BME280;40525;55.926;21.066;2022-09-09T07:51:44;101965.52;;;14.89;48.65
54628;BME280;40525;55.926;21.066;2022-09-09T07:54:15;101969.52;;;14.99;48.37
54628;BME280;40525;55.926;21.066;2022-09-09T07:56:44;101968.83;;;15.04;47.96
54628;BME280;40525;55.926;21.066;2022-09-09T07:59:11;101968.30;;;15.06;47.79
54628;BME280;40525;55.926;21.066;2022-09-09T08:01:41;101965.52;;;15.09;47.80
54628;BME280;40525;55.926;21.066;2022-09-09T08:04:15;101967.77;;;15.18;47.86
54628;BME280;40525;55.926;21.066;2022-09-09T08:06:49;101957.64;;;15.27;47.81
54628;BME280;40525;55.926;21.066;2022-09-09T08:09:24;101956.50;;;15.32;47.58
54628;BME280;40525;55.926;21.066;2022-09-09T08:11:55;101958.62;;;15.34;47.38
54628;BME280;40525;55.926;21.066;2022-09-09T08:14:23;101957.22;;;15.36;47.24
54628;BME280;40525;55.926;21.066;2022-09-09T08:16:50;101954.27;;;15.42;47.33
54628;BME280;40525;55.926;21.066;2022-09-09T08:19:20;101949.86;;;15.51;47.13
54628;BME280;40525;55.926;21.066;2022-09-09T08:21:47;101952.88;;;15.62;46.87
54628;BME280;40525;55.926;21.066;2022-09-09T08:24:14;101954.60;;;15.74;46.88
54628;BME280;40525;55.926;21.066;2022-09-09T08:26:44;101959.36;;;15.86;46.64
54628;BME280;40525;55.926;21.066;2022-09-09T08:29:14;101954.38;;;15.97;46.12
54628;BME280;40525;55.926;21.066;2022-09-09T08:31:47;101967.62;;;16.08;46.02
54628;BME280;40525;55.926;21.066;2022-09-09T08:34:24;101961.06;;;16.15;45.66
54628;BME280;40525;55.926;21.066;2022-09-09T08:36:53;101972.59;;;16.24;45.37
54628;BME280;40525;55.926;21.066;2022-09-09T08:39:22;101980.20;;;16.32;45.36
54628;BME280;40525;55.926;21.066;2022-09-09T08:42:13;101970.88;;;16.40;45.12
54628;BME280;40525;55.926;21.066;2022-09-09T08:45:14;101967.20;;;16.52;45.19
54628;BME280;40525;55.926;21.066;2022-09-09T08:50:37;101967.20;;;16.69;44.53
54628;BME280;40525;55.926;21.066;2022-09-09T08:53:15;101978.87;;;16.67;44.17
54628;BME280;40525;55.926;21.066;2022-09-09T08:55:54;101975.20;;;16.61;44.21
54628;BME280;40525;55.926;21.066;2022-09-09T08:58:28;101969.58;;;16.58;44.38
54628;BME280;40525;55.926;21.066;2022-09-09T09:04:00;101958.77;;;16.52;44.59
54628;BME280;40525;55.926;21.066;2022-09-09T09:12:21;101965.27;;;16.47;44.43
54628;BME280;40525;55.926;21.066;2022-09-09T09:14:49;101945.12;;;16.50;44.53
54628;BME280;40525;55.926;21.066;2022-09-09T09:17:19;101953.12;;;16.58;44.48
54628;BME280;40525;55.926;21.066;2022-09-09T09:19:48;101954.69;;;16.71;44.48
54628;BME280;40525;55.926;21.066;2022-09-09T09:22:21;101956.18;;;16.86;44.00
54628;BME280;40525;55.926;21.066;2022-09-09T09:30:34;101962.33;;;17.12;43.71
54628;BME280;40525;55.926;21.066;2022-09-09T09:35:53;101957.81;;;17.06;43.28
54628;BME280;40525;55.926;21.066;2022-09-09T09:38:23;101951.92;;;17.08;43.15
54628;BME280;40525;55.926;21.066;2022-09-09T09:40:54;101957.70;;;17.07;43.00
54628;BME280;40525;55.926;21.066;2022-09-09T09:43:29;101951.37;;;17.10;43.13
54628;BME280;40525;55.926;21.066;2022-09-09T09:45:59;101952.06;;;17.13;43.09
54628;BME280;40525;55.926;21.066;2022-09-09T09:48:27;101951.81;;;17.18;43.10
54628;BME280;40525;55.926;21.066;2022-09-09T09:51:04;101948.51;;;17.22;43.04
54628;BME280;40525;55.926;21.066;2022-09-09T09:53:34;101951.61;;;17.30;43.08
54628;BME280;40525;55.926;21.066;2022-09-09T09:56:05;101956.49;;;17.30;42.80
54628;BME280;40525;55.926;21.066;2022-09-09T10:01:26;101939.94;;;17.32;42.64
54628;BME280;40525;55.926;21.066;2022-09-09T10:04:02;101937.86;;;17.37;42.69
54628;BME280;40525;55.926;21.066;2022-09-09T10:06:33;101939.33;;;17.43;42.72
54628;BME280;40525;55.926;21.066;2022-09-09T10:09:02;101945.84;;;17.46;42.48
54628;BME280;40525;55.926;21.066;2022-09-09T10:17:48;101940.86;;;17.56;42.44
54628;BME280;40525;55.926;21.066;2022-09-09T10:21:03;101944.34;;;17.65;42.44
54628;BME280;40525;55.926;21.066;2022-09-09T10:32:48;101941.09;;;17.76;41.70
54628;BME280;40525;55.926;21.066;2022-09-09T10:38:30;101939.32;;;17.84;41.78
54628;BME280;40525;55.926;21.066;2022-09-09T10:55:51;101949.45;;;18.48;40.97
54628;BME280;40525;55.926;21.066;2022-09-09T10:58:35;101931.97;;;18.49;40.72
54628;BME280;40525;55.926;21.066;2022-09-09T11:01:08;101944.09;;;18.55;40.71
54628;BME280;40525;55.926;21.066;2022-09-09T11:03:37;101939.28;;;18.69;40.63
54628;BME280;40525;55.926;21.066;2022-09-09T11:06:16;101935.22;;;18.85;40.22
54628;BME280;40525;55.926;21.066;2022-09-09T11:08:39;101946.05;;;19.05;40.16
54628;BME280;40525;55.926;21.066;2022-09-09T11:11:57;101943.08;;;19.24;39.77
54628;BME280;40525;55.926;21.066;2022-09-09T11:17:01;101934.31;;;19.63;39.27
54628;BME280;40525;55.926;21.066;2022-09-09T11:19:40;101935.73;;;19.69;38.89
54628;BME280;40525;55.926;21.066;2022-09-09T11:22:37;101942.54;;;19.75;39.03
54628;BME280;40525;55.926;21.066;2022-09-09T11:25:40;101942.84;;;19.77;38.88
54628;BME280;40525;55.926;21.066;2022-09-09T11:28:13;101939.52;;;19.94;39.06
54628;BME280;40525;55.926;21.066;2022-09-09T11:31:11;101950.68;;;20.07;38.37
54628;BME280;40525;55.926;21.066;2022-09-09T11:45:56;101948.72;;;20.57;37.65
54628;BME280;40525;55.926;21.066;2022-09-09T11:48:38;101952.94;;;20.61;37.50
54628;BME280;40525;55.926;21.066;2022-09-09T11:51:05;101947.94;;;20.62;37.56
54628;BME280;40525;55.926;21.066;2022-09-09T11:53:51;101942.98;;;20.76;37.49
54628;BME280;40525;55.926;21.066;2022-09-09T11:56:34;101946.24;;;20.86;36.79
54628;BME280;40525;55.926;21.066;2022-09-09T11:59:26;101938.80;;;21.10;37.02
54628;BME280;40525;55.926;21.066;2022-09-09T12:02:10;101948.09;;;21.56;36.45
54628;BME280;40525;55.926;21.066;2022-09-09T12:04:54;101934.00;;;21.83;36.15
54628;BME280;40525;55.926;21.066;2022-09-09T12:07:48;101925.86;;;21.96;35.53
54628;BME280;40525;55.926;21.066;2022-09-09T12:10:30;101929.81;;;22.03;35.43
54628;BME280;40525;55.926;21.066;2022-09-09T12:13:20;101928.06;;;22.51;35.26
54628;BME280;40525;55.926;21.066;2022-09-09T12:15:50;101927.63;;;22.85;34.74
54628;BME280;40525;55.926;21.066;2022-09-09T12:21:21;101930.72;;;23.31;34.06
54628;BME280;40525;55.926;21.066;2022-09-09T12:23:59;101923.38;;;23.33;33.92
54628;BME280;40525;55.926;21.066;2022-09-09T12:26:53;101922.42;;;23.12;34.05
54628;BME280;40525;55.926;21.066;2022-09-09T12:32:25;101923.99;;;22.97;34.23
54628;BME280;40525;55.926;21.066;2022-09-09T12:35:00;101925.78;;;22.80;34.06
54628;BME280;40525;55.926;21.066;2022-09-09T12:40:26;101913.64;;;22.57;34.40
54628;BME280;40525;55.926;21.066;2022-09-09T12:42:51;101912.50;;;22.37;34.25
54628;BME280;40525;55.926;21.066;2022-09-09T12:45:20;101911.55;;;22.14;34.61
54628;BME280;40525;55.926;21.066;2022-09-09T12:48:02;101910.09;;;21.92;34.82
54628;BME280;40525;55.926;21.066;2022-09-09T12:50:38;101917.29;;;21.67;34.95
54628;BME280;40525;55.926;21.066;2022-09-09T12:53:26;101908.10;;;21.45;35.34
54628;BME280;40525;55.926;21.066;2022-09-09T12:56:00;101909.93;;;21.32;35.60
54628;BME280;40525;55.926;21.066;2022-09-09T12:58:35;101910.98;;;21.24;35.76
54628;BME280;40525;55.926;21.066;2022-09-09T13:01:05;101907.84;;;21.12;36.03
54628;BME280;40525;55.926;21.066;2022-09-09T13:03:33;101915.56;;;21.03;36.17
54628;BME280;40525;55.926;21.066;2022-09-09T13:06:20;101904.09;;;20.89;36.25
54628;BME280;40525;55.926;21.066;2022-09-09T13:08:46;101904.63;;;20.81;36.50
54628;BME280;40525;55.926;21.066;2022-09-09T13:11:16;101903.52;;;20.78;36.69
54628;BME280;40525;55.926;21.066;2022-09-09T13:13:49;101894.88;;;20.80;36.73
54628;BME280;40525;55.926;21.066;2022-09-09T13:16:23;101903.23;;;20.75;36.77
54628;BME280;40525;55.926;21.066;2022-09-09T13:19:09;101905.05;;;20.62;36.34
54628;BME280;40525;55.926;21.066;2022-09-09T13:21:39;101898.98;;;20.53;36.91
54628;BME280;40525;55.926;21.066;2022-09-09T13:30:20;101907.03;;;20.33;37.19
54628;BME280;40525;55.926;21.066;2022-09-09T13:33:00;101906.11;;;20.26;37.32
54628;BME280;40525;55.926;21.066;2022-09-09T13:35:47;101903.37;;;20.21;37.46
54628;BME280;40525;55.926;21.066;2022-09-09T13:38:17;101891.83;;;20.13;37.57
54628;BME280;40525;55.926;21.066;2022-09-09T13:41:07;101897.14;;;20.00;37.60
54628;BME280;40525;55.926;21.066;2022-09-09T13:43:37;101899.36;;;19.94;37.85
54628;BME280;40525;55.926;21.066;2022-09-09T13:46:27;101896.05;;;19.90;38.01
54628;BME280;40525;55.926;21.066;2022-09-09T13:51:50;101888.91;;;19.76;38.28
54628;BME280;40525;55.926;21.066;2022-09-09T13:54:18;101889.30;;;19.63;38.47
54628;BME280;40525;55.926;21.066;2022-09-09T13:56:46;101894.75;;;19.61;38.67
54628;BME280;40525;55.926;21.066;2022-09-09T13:59:16;101898.41;;;19.53;38.72
54628;BME280;40525;55.926;21.066;2022-09-09T14:01:47;101897.17;;;19.44;38.87
54628;BME280;40525;55.926;21.066;2022-09-09T14:04:16;101892.45;;;19.35;39.04
54628;BME280;40525;55.926;21.066;2022-09-09T14:06:43;101887.59;;;19.27;39.13
54628;BME280;40525;55.926;21.066;2022-09-09T14:09:12;101885.48;;;19.18;39.23
54628;BME280;40525;55.926;21.066;2022-09-09T14:11:41;101889.89;;;19.05;39.42
54628;BME280;40525;55.926;21.066;2022-09-09T14:14:07;101895.33;;;18.96;39.51
54628;BME280;40525;55.926;21.066;2022-09-09T14:16:34;101895.04;;;18.86;39.51
54628;BME280;40525;55.926;21.066;2022-09-09T14:19:02;101887.45;;;18.71;39.45
54628;BME280;40525;55.926;21.066;2022-09-09T14:21:28;101892.21;;;18.66;39.50
54628;BME280;40525;55.926;21.066;2022-09-09T14:23:55;101893.16;;;18.58;39.58
54628;BME280;40525;55.926;21.066;2022-09-09T14:26:24;101893.99;;;18.51;39.61
54628;BME280;40525;55.926;21.066;2022-09-09T14:28:52;101905.14;;;18.44;39.66
54628;BME280;40525;55.926;21.066;2022-09-09T14:31:18;101906.73;;;18.32;39.82
54628;BME280;40525;55.926;21.066;2022-09-09T14:33:45;101899.59;;;18.25;39.92
54628;BME280;40525;55.926;21.066;2022-09-09T14:36:11;101894.70;;;18.18;40.00
54628;BME280;40525;55.926;21.066;2022-09-09T14:38:38;101893.70;;;18.11;40.11
54628;BME280;40525;55.926;21.066;2022-09-09T14:41:11;101897.59;;;18.06;40.16
54628;BME280;40525;55.926;21.066;2022-09-09T14:43:39;101891.48;;;18.04;40.22
54628;BME280;40525;55.926;21.066;2022-09-09T14:46:07;101897.75;;;17.95;40.29
54628;BME280;40525;55.926;21.066;2022-09-09T14:48:35;101904.02;;;17.87;40.46
54628;BME280;40525;55.926;21.066;2022-09-09T14:53:41;101899.25;;;17.76;40.56
54628;BME280;40525;55.926;21.066;2022-09-09T14:56:17;101899.69;;;17.69;40.70
54628;BME280;40525;55.926;21.066;2022-09-09T14:58:46;101894.70;;;17.63;40.83
54628;BME280;40525;55.926;21.066;2022-09-09T15:01:16;101909.17;;;17.59;40.95
54628;BME280;40525;55.926;21.066;2022-09-09T15:03:50;101898.66;;;17.55;41.03
54628;BME280;40525;55.926;21.066;2022-09-09T15:06:18;101894.61;;;17.48;41.17
54628;BME280;40525;55.926;21.066;2022-09-09T15:08:46;101893.91;;;17.45;41.32
54628;BME280;40525;55.926;21.066;2022-09-09T15:11:14;101891.89;;;17.41;41.82
54628;BME280;40525;55.926;21.066;2022-09-09T15:13:42;101892.64;;;17.36;41.95
54628;BME280;40525;55.926;21.066;2022-09-09T15:16:19;101892.02;;;17.31;42.02
54628;BME280;40525;55.926;21.066;2022-09-09T15:18:50;101889.22;;;17.25;42.09
54628;BME280;40525;55.926;21.066;2022-09-09T15:21:21;101893.70;;;17.25;42.18
54628;BME280;40525;55.926;21.066;2022-09-09T15:23:50;101896.16;;;17.21;42.38
54628;BME280;40525;55.926;21.066;2022-09-09T15:26:18;101896.54;;;17.13;42.66
54628;BME280;40525;55.926;21.066;2022-09-09T15:28:45;101912.39;;;17.07;43.14
54628;BME280;40525;55.926;21.066;2022-09-09T15:31:19;101906.25;;;16.98;43.68
54628;BME280;40525;55.926;21.066;2022-09-09T15:34:01;101906.55;;;16.92;44.01
54628;BME280;40525;55.926;21.066;2022-09-09T15:36:44;101900.63;;;16.87;44.19
54628;BME280;40525;55.926;21.066;2022-09-09T15:39:11;101897.09;;;16.86;44.27
54628;BME280;40525;55.926;21.066;2022-09-09T15:41:44;101897.27;;;16.83;44.46
54628;BME280;40525;55.926;21.066;2022-09-09T15:44:12;101904.23;;;16.77;44.52